createdAt,value
2018-08-17T00:01:45.588Z,100723.06
2018-08-17T00:03:50.506Z,100720.83
2018-08-17T00:05:55.409Z,100726.05
2018-08-17T00:08:00.426Z,100717.35
2018-08-17T00:10:05.340Z,100713.41
2018-08-17T00:12:10.249Z,100715.95
2018-08-17T00:14:15.117Z,100716.43
2018-08-17T00:16:19.917Z,100708.56
2018-08-17T00:18:24.722Z,100702.42
2018-08-17T00:20:29.681Z,100704.16
2018-08-17T00:22:34.543Z,100695.42
2018-08-17T00:24:39.412Z,100690.21
2018-08-17T00:26:45.078Z,100687.98
2018-08-17T00:28:49.852Z,100681.90
2018-08-17T00:30:54.717Z,100680.53
2018-08-17T00:32:59.631Z,100684.42
2018-08-17T00:35:04.516Z,100685.75
2018-08-17T00:37:09.414Z,100687.05
2018-08-17T00:39:14.344Z,100681.86
2018-08-17T00:41:19.618Z,100692.67
2018-08-17T00:43:24.402Z,100691.73
2018-08-17T00:45:29.341Z,100701.70
2018-08-17T00:47:34.240Z,100695.63
2018-08-17T00:49:39.196Z,100693.41
2018-08-17T00:51:44.014Z,100699.14
2018-08-17T00:53:48.798Z,100687.01
2018-08-17T00:55:53.658Z,100695.30
2018-08-17T00:57:58.719Z,100699.70
2018-08-17T01:00:03.580Z,100700.52
2018-08-17T01:02:10.893Z,100703.58
2018-08-17T01:04:15.794Z,100710.23
2018-08-17T01:06:20.590Z,100709.76
2018-08-17T01:08:25.506Z,100690.10
2018-08-17T01:10:30.263Z,100703.19
2018-08-17T01:12:35.077Z,100704.54
2018-08-17T01:14:39.864Z,100710.66
2018-08-17T01:16:44.900Z,100715.40
2018-08-17T01:18:49.718Z,100717.95
2018-08-17T01:20:54.507Z,100743.76
2018-08-17T01:22:59.760Z,100762.25
2018-08-17T01:25:05.393Z,100774.69
2018-08-17T01:27:10.598Z,100767.86
2018-08-17T01:29:15.402Z,100775.52
2018-08-17T01:31:20.334Z,100786.52
2018-08-17T01:33:25.122Z,100794.34
2018-08-17T01:35:29.961Z,100789.06
2018-08-17T01:37:34.819Z,100787.31
2018-08-17T01:39:40.091Z,100802.47
2018-08-17T01:41:45.053Z,100799.00
2018-08-17T01:43:49.892Z,100797.23
2018-08-17T01:45:54.844Z,100803.98
2018-08-17T01:48:00.021Z,100805.55
2018-08-17T01:50:05.492Z,100806.86
2018-08-17T01:52:10.329Z,100814.75
2018-08-17T01:54:15.336Z,100802.44
2018-08-17T01:56:20.147Z,100806.83
2018-08-17T01:58:24.925Z,100806.78
2018-08-17T02:00:29.793Z,100807.08
2018-08-17T02:02:34.645Z,100804.19
2018-08-17T02:04:39.417Z,100810.70
2018-08-17T02:06:44.343Z,100816.14
2018-08-17T02:08:49.200Z,100806.08
2018-08-17T02:10:54.027Z,100826.16
2018-08-17T02:12:59.058Z,100832.09
2018-08-17T02:15:03.911Z,100833.17
2018-08-17T02:17:09.014Z,100826.63
2018-08-17T02:19:13.981Z,100835.78
2018-08-17T02:21:18.841Z,100840.09
2018-08-17T02:23:23.601Z,100852.89
2018-08-17T02:25:28.391Z,100860.60
2018-08-17T02:27:33.314Z,100861.88
2018-08-17T02:29:38.119Z,100863.49
2018-08-17T02:31:42.978Z,100861.81
2018-08-17T02:33:47.797Z,100866.38
2018-08-17T02:35:52.632Z,100857.83
2018-08-17T02:37:57.613Z,100867.25
2018-08-17T02:40:02.487Z,100871.26
2018-08-17T02:42:07.791Z,100868.27
2018-08-17T02:44:12.672Z,100866.63
2018-08-17T02:46:17.631Z,100869.65
2018-08-17T02:48:22.424Z,100866.03
2018-08-17T02:50:27.248Z,100871.16
2018-08-17T02:52:32.016Z,100868.66
2018-08-17T02:54:36.781Z,100871.34
2018-08-17T02:56:41.929Z,100857.49
2018-08-17T02:58:46.648Z,100854.33
2018-08-17T03:00:57.066Z,100858.14
2018-08-17T03:03:01.980Z,100860.20
2018-08-17T03:05:07.013Z,100849.88
2018-08-17T03:07:11.744Z,100846.30
2018-08-17T03:09:16.832Z,100851.06
2018-08-17T03:11:21.809Z,100849.38
2018-08-17T03:13:26.619Z,100851.52
2018-08-17T03:15:31.487Z,100853.99
2018-08-17T03:17:36.277Z,100838.77
2018-08-17T03:19:41.045Z,100840.48
2018-08-17T03:21:46.204Z,100836.31
2018-08-17T03:23:50.964Z,100838.40
2018-08-17T03:25:55.724Z,100840.41
2018-08-17T03:28:00.630Z,100845.88
2018-08-17T03:30:05.976Z,100849.70
2018-08-17T03:32:10.869Z,100845.34
2018-08-17T03:34:15.991Z,100846.35
2018-08-17T03:36:20.806Z,100844.34
2018-08-17T03:38:25.637Z,100832.34
2018-08-17T03:40:30.499Z,100822.89
2018-08-17T03:42:35.300Z,100811.06
2018-08-17T03:44:40.075Z,100823.27
2018-08-17T03:46:45.858Z,100823.16
2018-08-17T03:48:50.787Z,100815.58
2018-08-17T03:50:55.663Z,100816.16
2018-08-17T03:53:00.595Z,100799.25
2018-08-17T03:55:05.597Z,100810.52
2018-08-17T03:57:10.378Z,100811.27
2018-08-17T03:59:15.306Z,100818.30
2018-08-17T04:01:20.462Z,100822.69
2018-08-17T04:03:25.289Z,100838.72
2018-08-17T04:05:30.120Z,100852.17
2018-08-17T04:07:34.905Z,100869.62
2018-08-17T04:09:39.713Z,100884.86
2018-08-17T04:11:44.511Z,100905.08
2018-08-17T04:13:49.428Z,100913.44
2018-08-17T04:15:54.805Z,100922.55
2018-08-17T04:17:59.814Z,100935.59
2018-08-17T04:20:05.065Z,100927.25
2018-08-17T04:22:10.013Z,100931.14
2018-08-17T04:24:14.877Z,100922.75
2018-08-17T04:26:19.835Z,100916.58
2018-08-17T04:28:25.051Z,100922.89
2018-08-17T04:30:30.252Z,100926.80
2018-08-17T04:32:35.256Z,100935.41
2018-08-17T04:34:40.090Z,100949.00
2018-08-17T04:36:45.026Z,100965.18
2018-08-17T04:38:50.426Z,100969.62
2018-08-17T04:40:55.334Z,100982.39
2018-08-17T04:43:06.690Z,100976.97
2018-08-17T04:45:11.676Z,100991.49
2018-08-17T04:47:16.422Z,100995.12
2018-08-17T04:49:21.428Z,100993.65
2018-08-17T04:51:26.268Z,100977.02
2018-08-17T04:53:31.245Z,100984.98
2018-08-17T04:55:36.150Z,100983.81
2018-08-17T04:57:41.177Z,100962.06
2018-08-17T04:59:46.019Z,100969.10
2018-08-17T05:01:50.857Z,100957.86
2018-08-17T05:03:55.760Z,100953.95
2018-08-17T05:06:00.759Z,100942.44
2018-08-17T05:08:05.613Z,100940.34
2018-08-17T05:10:10.626Z,100946.72
2018-08-17T05:12:18.380Z,100942.90
2018-08-17T05:14:23.264Z,100940.12
2018-08-17T05:16:29.238Z,100937.61
2018-08-17T05:18:34.277Z,100945.95
2018-08-17T05:20:39.172Z,100959.97
2018-08-17T05:22:44.826Z,100982.02
2018-08-17T05:24:49.681Z,100987.95
2018-08-17T05:26:54.658Z,100968.79
2018-08-17T05:28:59.527Z,100974.60
2018-08-17T05:31:13.724Z,100987.33
2018-08-17T05:33:22.165Z,100994.47
2018-08-17T05:35:27.065Z,100986.50
2018-08-17T05:37:31.898Z,100983.30
2018-08-17T05:39:36.777Z,100988.24
2018-08-17T05:41:41.603Z,100985.73
2018-08-17T05:43:46.485Z,100996.34
2018-08-17T05:45:51.300Z,101005.95
2018-08-17T05:47:56.337Z,101014.80
2018-08-17T05:50:01.173Z,101028.74
2018-08-17T05:52:06.261Z,101047.95
2018-08-17T05:54:11.072Z,101053.72
2018-08-17T05:56:16.239Z,101036.59
2018-08-17T05:58:21.088Z,101052.91
2018-08-17T06:00:26.457Z,101059.30
2018-08-17T06:02:31.518Z,101049.48
2018-08-17T06:04:36.413Z,101035.34
2018-08-17T06:06:41.498Z,101038.67
2018-08-17T06:08:46.435Z,101035.12
2018-08-17T06:10:51.404Z,101035.34
2018-08-17T06:12:56.221Z,101026.45
2018-08-17T06:15:01.084Z,101029.41
2018-08-17T06:17:06.132Z,101026.49
2018-08-17T06:19:12.221Z,101010.80
2018-08-17T06:21:17.659Z,101008.25
2018-08-17T06:23:22.646Z,100998.56
2018-08-17T06:25:28.392Z,101001.95
2018-08-17T06:27:33.536Z,101005.41
2018-08-17T06:29:38.723Z,101011.84
2018-08-17T06:31:45.176Z,100988.21
2018-08-17T06:33:50.145Z,100989.05
2018-08-17T06:35:55.465Z,100980.66
2018-08-17T06:38:00.712Z,100997.44
2018-08-17T06:40:06.161Z,101006.70
2018-08-17T06:42:11.515Z,101014.42
2018-08-17T06:44:16.876Z,101015.14
2018-08-17T06:46:22.177Z,101015.42
2018-08-17T06:48:27.692Z,101014.34
2018-08-17T06:50:33.350Z,101018.59
2018-08-17T06:52:39.106Z,101023.82
2018-08-17T06:54:44.322Z,101023.57
2018-08-17T06:56:49.674Z,101012.09
2018-08-17T06:58:54.624Z,101000.35
2018-08-17T07:01:00.588Z,100991.00
2018-08-17T07:03:13.928Z,100984.56
2018-08-17T07:05:19.292Z,100992.38
2018-08-17T07:07:24.863Z,100991.73
2018-08-17T07:09:30.372Z,100994.73
2018-08-17T07:11:35.225Z,100994.17
2018-08-17T07:13:41.752Z,100993.59
2018-08-17T07:15:47.459Z,101003.95
2018-08-17T07:17:53.376Z,100992.83
2018-08-17T07:19:58.380Z,101005.20
2018-08-17T07:22:03.614Z,100995.86
2018-08-17T07:24:08.852Z,101013.55
2018-08-17T07:26:14.556Z,101026.13
2018-08-17T07:28:19.795Z,101013.48
2018-08-17T07:30:25.052Z,101013.58
2018-08-17T07:32:30.433Z,101020.03
2018-08-17T07:34:36.426Z,101012.60
2018-08-17T07:36:42.061Z,101019.16
2018-08-17T07:38:49.150Z,101014.39
2018-08-17T07:40:54.075Z,101013.86
2018-08-17T07:42:59.269Z,101012.14
2018-08-17T07:45:22.179Z,101017.33
2018-08-17T07:47:27.249Z,101005.41
2018-08-17T07:49:32.198Z,101015.98
2018-08-17T07:51:37.139Z,101025.69
2018-08-17T07:53:41.961Z,101033.87
2018-08-17T07:55:46.971Z,101044.73
2018-08-17T07:57:51.951Z,101053.53
2018-08-17T07:59:57.544Z,101063.33
2018-08-17T08:02:03.066Z,101064.40
2018-08-17T08:04:09.088Z,101060.03
2018-08-17T08:06:14.952Z,101059.52
2018-08-17T08:08:20.020Z,101065.34
2018-08-17T08:10:25.228Z,101069.39
2018-08-17T08:12:30.260Z,101074.09
2018-08-17T08:14:34.977Z,101071.63
2018-08-17T08:16:40.211Z,101076.23
2018-08-17T08:18:45.437Z,101077.36
2018-08-17T08:20:50.399Z,101084.91
2018-08-17T08:23:33.745Z,101097.33
2018-08-17T08:25:38.903Z,101091.08
2018-08-17T08:29:42.281Z,101112.38
2018-08-17T08:31:47.183Z,101105.52
2018-08-17T08:33:52.476Z,101107.61
2018-08-17T08:35:57.413Z,101108.42
2018-08-17T08:38:02.265Z,101104.59
2018-08-17T08:40:07.515Z,101106.25
2018-08-17T08:42:12.611Z,101110.81
2018-08-17T08:44:17.463Z,101113.48
2018-08-17T08:46:22.313Z,101113.12
2018-08-17T08:48:27.278Z,101112.05
2018-08-17T08:50:32.199Z,101122.75
2018-08-17T08:52:36.982Z,101125.67
2018-08-17T08:54:42.069Z,101123.31
2018-08-17T08:56:46.881Z,101123.59
2018-08-17T08:58:51.791Z,101133.17
2018-08-17T09:00:56.968Z,101135.31
2018-08-17T09:03:01.997Z,101146.43
2018-08-17T09:05:07.067Z,101145.23
2018-08-17T09:07:11.915Z,101152.66
2018-08-17T09:09:16.848Z,101146.30
2018-08-17T09:11:21.757Z,101148.22
2018-08-17T09:13:26.682Z,101148.45
2018-08-17T09:15:31.659Z,101149.06
2018-08-17T09:17:36.872Z,101156.95
2018-08-17T09:19:41.884Z,101163.34
2018-08-17T09:21:46.823Z,101165.95
2018-08-17T09:23:51.752Z,101160.34
2018-08-17T09:25:56.646Z,101165.03
2018-08-17T09:28:01.441Z,101167.08
2018-08-17T09:30:10.103Z,101164.38
2018-08-17T09:32:15.081Z,101173.40
2018-08-17T09:34:19.917Z,101169.22
2018-08-17T09:36:25.343Z,101163.15
2018-08-17T09:40:42.354Z,101172.27
2018-08-17T09:42:47.339Z,101163.61
2018-08-17T09:44:52.327Z,101169.02
2018-08-17T09:46:58.884Z,101164.59
2018-08-17T09:49:03.859Z,101167.86
2018-08-17T09:51:08.680Z,101163.37
2018-08-17T09:53:16.353Z,101169.16
2018-08-17T09:55:21.140Z,101168.59
2018-08-17T09:57:25.919Z,101168.59
2018-08-17T09:59:30.871Z,101166.77
2018-08-17T10:01:40.987Z,101167.77
2018-08-17T10:03:49.906Z,101166.73
2018-08-17T10:06:00.515Z,101165.89
2018-08-17T10:08:10.570Z,101171.88
2018-08-17T10:10:19.794Z,101163.39
2018-08-17T10:12:24.727Z,101163.48
2018-08-17T10:14:29.644Z,101160.26
2018-08-17T10:16:34.476Z,101169.37
2018-08-17T10:18:44.932Z,101171.99
2018-08-17T10:20:50.110Z,101179.13
2018-08-17T10:22:55.683Z,101175.91
2018-08-17T10:25:08.770Z,101180.41
2018-08-17T10:27:13.654Z,101157.31
2018-08-17T10:29:19.435Z,101177.48
2018-08-17T10:31:24.301Z,101179.44
2018-08-17T10:33:29.208Z,101173.98
2018-08-17T10:35:35.043Z,101176.69
2018-08-17T10:37:39.886Z,101180.98
2018-08-17T10:39:55.775Z,101185.33
2018-08-17T10:42:00.729Z,101185.37
2018-08-17T10:44:06.264Z,101175.72
2018-08-17T10:46:11.773Z,101180.71
2018-08-17T10:48:17.500Z,101179.84
2018-08-17T10:50:25.265Z,101186.75
2018-08-17T10:52:30.258Z,101188.02
2018-08-17T10:54:35.326Z,101183.06
2018-08-17T10:56:40.305Z,101182.45
2018-08-17T10:58:45.172Z,101190.52
2018-08-17T11:00:50.051Z,101190.70
2018-08-17T11:02:55.231Z,101196.02
2018-08-17T11:05:00.054Z,101196.91
2018-08-17T11:07:04.845Z,101203.52
2018-08-17T11:09:11.185Z,101203.67
2018-08-17T11:11:15.977Z,101195.80
2018-08-17T11:13:20.965Z,101205.02
2018-08-17T11:15:25.959Z,101206.19
2018-08-17T11:17:30.840Z,101202.16
2018-08-17T11:19:35.722Z,101213.20
2018-08-17T11:21:40.899Z,101208.84
2018-08-17T11:23:45.803Z,101211.83
2018-08-17T11:25:50.624Z,101204.28
2018-08-17T11:27:55.572Z,101214.55
2018-08-17T11:30:00.476Z,101218.54
2018-08-17T11:32:05.396Z,101216.39
2018-08-17T11:34:10.438Z,101216.89
2018-08-17T11:36:15.371Z,101225.59
2018-08-17T11:38:20.585Z,101215.16
2018-08-17T11:40:25.403Z,101220.91
2018-08-17T11:42:40.825Z,101225.09
2018-08-17T11:44:45.793Z,101228.28
2018-08-17T11:46:51.030Z,101226.53
2018-08-17T11:48:55.805Z,101229.27
2018-08-17T11:51:00.633Z,101227.98
2018-08-17T11:53:05.889Z,101231.69
2018-08-17T11:55:10.650Z,101236.73
2018-08-17T11:57:15.503Z,101235.22
2018-08-17T11:59:20.400Z,101233.61
2018-08-17T12:01:27.324Z,101235.08
2018-08-17T12:03:32.228Z,101237.00
2018-08-17T12:05:37.133Z,101236.05
2018-08-17T12:09:52.791Z,101244.95
2018-08-17T12:11:57.704Z,101239.05
2018-08-17T12:14:02.671Z,101233.64
2018-08-17T12:16:11.127Z,101227.89
2018-08-17T12:18:16.137Z,101231.94
2018-08-17T12:20:21.362Z,101243.80
2018-08-17T12:22:26.278Z,101242.12
2018-08-17T12:24:32.111Z,101247.30
2018-08-17T12:26:42.073Z,101240.89
2018-08-17T12:28:47.466Z,101239.56
2018-08-17T12:30:52.407Z,101229.83
2018-08-17T12:32:57.172Z,101242.33
2018-08-17T12:35:02.170Z,101244.42
2018-08-17T12:37:07.210Z,101240.64
2018-08-17T12:39:12.124Z,101238.08
2018-08-17T12:41:16.882Z,101244.94
2018-08-17T12:43:25.559Z,101242.52
2018-08-17T12:45:30.383Z,101245.22
2018-08-17T12:47:35.622Z,101218.84
2018-08-17T12:49:40.813Z,101233.53
2018-08-17T12:51:45.715Z,101231.84
2018-08-17T12:53:50.515Z,101227.44
2018-08-17T12:55:55.265Z,101236.70
2018-08-17T12:58:00.100Z,101233.19
2018-08-17T13:00:05.831Z,101242.17
2018-08-17T13:02:10.708Z,101242.65
2018-08-17T13:04:15.457Z,101238.36
2018-08-17T13:06:20.272Z,101235.98
2018-08-17T13:08:25.328Z,101244.40
2018-08-17T13:10:30.785Z,101242.12
2018-08-17T13:12:35.553Z,101247.14
2018-08-17T13:14:40.509Z,101251.20
2018-08-17T13:16:45.669Z,101243.28
2018-08-17T13:18:52.134Z,101242.90
2018-08-17T13:20:57.053Z,101247.94
2018-08-17T13:23:01.872Z,101247.69
2018-08-17T13:25:06.927Z,101244.78
2018-08-17T13:27:12.544Z,101247.27
2018-08-17T13:29:17.366Z,101246.88
2018-08-17T13:31:22.277Z,101241.88
2018-08-17T13:33:27.250Z,101242.77
2018-08-17T13:35:32.470Z,101254.33
2018-08-17T13:37:37.326Z,101249.70
2018-08-17T13:39:42.290Z,101242.25
2018-08-17T13:41:47.182Z,101236.55
2018-08-17T13:43:52.651Z,101246.39
2018-08-17T13:45:57.783Z,101240.73
2018-08-17T13:48:02.768Z,101237.95
2018-08-17T13:50:09.120Z,101240.06
2018-08-17T13:52:14.125Z,101237.02
2018-08-17T13:54:18.988Z,101235.91
2018-08-17T13:56:23.772Z,101231.38
2018-08-17T13:58:28.662Z,101227.09
2018-08-17T14:00:33.504Z,101230.53
2018-08-17T14:02:38.419Z,101225.27
2018-08-17T14:04:43.541Z,101227.09
2018-08-17T14:06:48.467Z,101228.08
2018-08-17T14:08:53.302Z,101229.69
2018-08-17T14:10:58.253Z,101233.16
2018-08-17T14:13:03.076Z,101235.94
2018-08-17T14:15:09.849Z,101224.41
2018-08-17T14:17:14.891Z,101221.76
2018-08-17T14:23:56.215Z,101232.19
2018-08-17T14:26:04.347Z,101237.42
2018-08-17T14:28:20.840Z,101232.00
2018-08-17T14:30:26.234Z,101234.28
2018-08-17T14:32:34.406Z,101230.52
2018-08-17T14:34:39.846Z,101231.27
2018-08-17T14:36:44.857Z,101229.20
2018-08-17T14:38:50.010Z,101231.80
2018-08-17T14:40:54.863Z,101224.05
2018-08-17T14:43:03.285Z,101225.88
2018-08-17T14:45:09.084Z,101229.39
2018-08-17T14:47:13.878Z,101232.74
2018-08-17T14:49:18.770Z,101227.98
2018-08-17T14:51:23.659Z,101234.23
2018-08-17T14:53:28.793Z,101233.70
2018-08-17T14:55:33.673Z,101225.83
2018-08-17T14:57:38.643Z,101161.20
2018-08-17T14:59:43.445Z,101232.18
2018-08-17T15:01:48.581Z,101237.00
2018-08-17T15:03:53.490Z,101219.30
2018-08-17T15:06:00.823Z,101221.95
2018-08-17T15:08:05.846Z,101221.16
2018-08-17T15:10:12.892Z,101224.31
2018-08-17T15:12:17.694Z,101224.37
2018-08-17T15:14:22.913Z,101227.80
2018-08-17T15:16:27.740Z,101217.44
2018-08-17T15:18:32.462Z,101218.83
2018-08-17T15:20:37.279Z,101218.11
2018-08-17T15:22:42.402Z,101228.18
2018-08-17T15:24:47.182Z,101224.69
2018-08-17T15:26:52.148Z,101220.22
2018-08-17T15:28:56.932Z,101214.99
2018-08-17T15:31:01.683Z,101209.72
2018-08-17T15:33:06.885Z,101207.23
2018-08-17T15:35:11.999Z,101206.08
2018-08-17T15:37:17.558Z,101203.06
2018-08-17T15:39:22.680Z,101210.56
2018-08-17T15:41:27.549Z,101212.48
2018-08-17T15:43:32.873Z,101215.11
2018-08-17T15:45:37.961Z,101214.45
2018-08-17T15:47:42.917Z,101211.45
2018-08-17T15:50:09.362Z,101196.27
2018-08-17T15:52:14.252Z,101208.91
2018-08-17T15:54:19.139Z,101206.44
2018-08-17T15:56:24.065Z,101218.70
2018-08-17T15:58:30.352Z,101205.22
2018-08-17T16:00:35.929Z,101220.44
2018-08-17T16:02:40.832Z,101223.77
2018-08-17T16:04:45.619Z,101227.05
2018-08-17T16:06:50.443Z,101216.48
2018-08-17T16:08:55.191Z,101223.53
2018-08-17T16:10:59.943Z,101217.39
2018-08-17T16:13:04.970Z,101224.63
2018-08-17T16:15:10.620Z,101223.39
2018-08-17T16:17:15.678Z,101222.41
2018-08-17T16:19:20.711Z,101224.38
2018-08-17T16:21:25.779Z,101224.28
2018-08-17T16:23:30.742Z,101215.25
2018-08-17T16:25:35.720Z,101232.06
2018-08-17T16:27:41.287Z,101217.63
2018-08-17T16:29:46.433Z,101224.59
2018-08-17T16:31:51.599Z,101199.98
2018-08-17T16:33:56.468Z,101231.13
2018-08-17T16:36:01.480Z,101231.06
2018-08-17T16:38:07.016Z,101234.22
2018-08-17T16:40:12.218Z,101232.95
2018-08-17T16:42:25.576Z,101237.70
2018-08-17T16:44:30.636Z,101231.91
2018-08-17T16:46:36.273Z,101239.41
2018-08-17T16:48:41.894Z,101235.54
2018-08-17T16:50:47.063Z,101230.10
2018-08-17T16:52:52.025Z,101230.94
2018-08-17T16:54:56.941Z,101221.63
2018-08-17T16:57:01.900Z,101232.23
2018-08-17T16:59:07.262Z,101224.38
2018-08-17T17:01:12.128Z,101229.55
2018-08-17T17:03:28.960Z,101228.48
2018-08-17T17:05:33.799Z,101234.73
2018-08-17T17:07:38.573Z,101239.47
2018-08-17T17:09:43.446Z,101241.38
2018-08-17T17:11:48.424Z,101241.04
2018-08-17T17:13:53.328Z,101245.50
2018-08-17T17:15:58.134Z,101241.09
2018-08-17T17:18:09.285Z,101245.92
2018-08-17T17:20:14.233Z,101246.45
2018-08-17T17:22:19.749Z,101244.68
2018-08-17T17:24:25.483Z,101242.41
2018-08-17T17:26:34.198Z,101247.57
2018-08-17T17:28:39.150Z,101245.07
2018-08-17T17:30:50.759Z,101244.47
2018-08-17T17:32:55.752Z,101242.16
2018-08-17T17:35:00.632Z,101235.84
2018-08-17T17:37:07.517Z,101240.00
2018-08-17T17:39:14.105Z,101241.75
2018-08-17T17:41:24.858Z,101242.58
2018-08-17T17:43:30.226Z,101243.48
2018-08-17T17:45:35.470Z,101238.69
2018-08-17T17:47:43.137Z,101241.91
2018-08-17T17:49:48.512Z,101238.61
2018-08-17T17:51:53.598Z,101239.43
2018-08-17T17:53:58.523Z,101234.85
2018-08-17T17:56:03.610Z,101235.73
2018-08-17T17:58:10.179Z,101241.23
2018-08-17T18:00:15.048Z,101232.56
2018-08-17T18:02:20.127Z,101240.33
2018-08-17T18:04:25.191Z,101237.89
2018-08-17T18:06:30.187Z,101242.64
2018-08-17T18:08:35.626Z,101244.49
2018-08-17T18:10:40.804Z,101238.89
2018-08-17T18:12:45.739Z,101239.36
2018-08-17T18:14:51.657Z,101240.00
2018-08-17T18:16:56.839Z,101244.28
2018-08-17T18:19:01.967Z,101244.75
2018-08-17T18:21:07.153Z,101250.17
2018-08-17T18:23:12.186Z,101244.56
2018-08-17T18:25:17.785Z,101250.13
2018-08-17T18:27:22.828Z,101250.43
2018-08-17T18:29:27.894Z,101244.34
2018-08-17T18:31:32.971Z,101258.35
2018-08-17T18:33:38.334Z,101259.12
2018-08-17T18:42:14.744Z,101264.20
2018-08-17T18:44:21.266Z,101267.68
2018-08-17T18:46:26.600Z,101268.34
2018-08-17T18:48:31.584Z,101269.98
2018-08-17T18:50:36.477Z,101276.73
2018-08-17T18:52:41.663Z,101276.84
2018-08-17T18:54:46.915Z,101274.91
2018-08-17T18:56:51.806Z,101277.37
2018-08-17T18:58:56.918Z,101278.09
2018-08-17T19:01:01.952Z,101280.55
2018-08-17T19:03:07.630Z,101284.78
2018-08-17T19:05:13.213Z,101283.34
2018-08-17T19:07:18.133Z,101282.00
2018-08-17T19:09:23.566Z,101298.83
2018-08-17T19:11:29.579Z,101296.31
2018-08-17T19:13:34.874Z,101302.63
2018-08-17T19:15:45.480Z,101311.69
2018-08-17T19:17:51.206Z,101308.45
2018-08-17T19:19:58.187Z,101313.59
2018-08-17T19:22:03.256Z,101313.06
2018-08-17T19:24:12.523Z,101320.05
2018-08-17T19:26:18.015Z,101318.63
2018-08-17T19:28:23.018Z,101314.80
2018-08-17T19:30:34.285Z,101323.16
2018-08-17T19:32:44.618Z,101323.93
2018-08-17T19:34:56.325Z,101326.88
2018-08-17T19:37:04.001Z,101316.91
2018-08-17T19:41:35.561Z,101333.34
2018-08-17T19:43:45.777Z,101332.60
2018-08-17T19:45:55.298Z,101333.02
2018-08-17T19:48:05.508Z,101333.24
2018-08-17T19:50:14.587Z,101337.47
2018-08-17T19:52:21.675Z,101343.25
2018-08-17T19:54:29.902Z,101340.20
2018-08-17T19:56:36.344Z,101349.55
2018-08-17T19:58:44.346Z,101351.02
2018-08-17T20:00:51.838Z,101359.53
2018-08-17T20:02:59.167Z,101352.20
2018-08-17T20:05:06.016Z,101351.11
2018-08-17T20:07:12.123Z,101360.41
2018-08-17T20:09:17.635Z,101356.53
2018-08-17T20:11:24.682Z,101356.05
2018-08-17T20:13:30.162Z,101335.76
2018-08-17T20:15:39.286Z,101363.44
2018-08-17T20:17:54.140Z,101361.98
2018-08-17T20:20:00.994Z,101348.23
2018-08-17T20:22:13.091Z,101354.80
2018-08-17T20:24:18.290Z,101361.15
2018-08-17T20:26:24.962Z,101362.63
2018-08-17T20:28:33.984Z,101367.82
2018-08-17T20:30:43.030Z,101361.78
2018-08-17T20:32:52.897Z,101361.32
2018-08-17T20:35:03.546Z,101368.63
2018-08-17T20:37:09.682Z,101365.36
2018-08-17T20:39:16.490Z,101364.83
2018-08-17T20:41:24.970Z,101367.67
2018-08-17T20:43:34.175Z,101374.60
2018-08-17T20:45:42.432Z,101375.23
2018-08-17T20:47:49.323Z,101374.56
2018-08-17T20:49:57.481Z,101368.66
2018-08-17T20:52:04.741Z,101375.89
2018-08-17T20:54:11.126Z,101373.69
2018-08-17T20:56:17.650Z,101369.61
2018-08-17T20:58:24.415Z,101370.69
2018-08-17T21:00:30.609Z,101373.54
2018-08-17T21:02:35.749Z,101375.83
2018-08-17T21:04:41.662Z,101377.39
2018-08-17T21:06:47.486Z,101381.51
2018-08-17T21:08:52.683Z,101378.31
2018-08-17T21:10:58.160Z,101383.38
2018-08-17T21:13:03.311Z,101368.97
2018-08-17T21:15:11.313Z,101387.00
2018-08-17T21:17:19.304Z,101384.84
2018-08-17T21:19:31.428Z,101386.00
2018-08-17T21:21:37.547Z,101387.30
2018-08-17T21:23:42.609Z,101384.28
2018-08-17T21:25:50.627Z,101389.84
2018-08-17T21:27:55.709Z,101386.40
2018-08-17T21:30:01.396Z,101387.56
2018-08-17T21:32:06.439Z,101392.73
2018-08-17T21:34:11.657Z,101384.84
2018-08-17T21:36:16.849Z,101387.73
2018-08-17T21:38:22.000Z,101388.02
2018-08-17T21:40:29.880Z,101397.02
2018-08-17T21:42:38.041Z,101396.48
2018-08-17T21:44:43.603Z,101396.37
2018-08-17T21:47:09.507Z,101393.59
2018-08-17T21:49:14.528Z,101399.02
2018-08-17T21:51:19.958Z,101398.65
2018-08-17T21:53:25.828Z,101406.48
2018-08-17T21:55:35.717Z,101399.45
2018-08-17T21:57:45.174Z,101402.50
2018-08-17T21:59:52.115Z,101402.45
2018-08-17T22:01:59.417Z,101406.44
2018-08-17T22:04:05.840Z,101405.52
2018-08-17T22:06:10.933Z,101407.10
2018-08-17T22:08:15.855Z,101404.05
2018-08-17T22:10:20.819Z,101405.22
2018-08-17T22:12:26.055Z,101407.93
2018-08-17T22:14:31.037Z,101408.44
2018-08-17T22:16:36.334Z,101408.72
2018-08-17T22:18:41.365Z,101409.47
2018-08-17T22:20:46.573Z,101412.90
2018-08-17T22:22:51.622Z,101409.70
2018-08-17T22:24:58.024Z,101414.56
2018-08-17T22:27:03.309Z,101412.55
2018-08-17T22:29:08.208Z,101412.27
2018-08-17T22:31:13.201Z,101409.98
2018-08-17T22:33:18.105Z,101411.84
2018-08-17T22:35:23.249Z,101414.84
2018-08-17T22:37:28.123Z,101421.14
2018-08-17T22:39:33.098Z,101428.78
2018-08-17T22:41:38.128Z,101424.20
2018-08-17T22:43:43.073Z,101426.28
2018-08-17T22:45:49.189Z,101422.16
2018-08-17T22:47:54.716Z,101429.44
2018-08-17T22:50:01.217Z,101427.44
2018-08-17T22:52:06.639Z,101416.93
2018-08-17T22:54:11.829Z,101432.52
2018-08-17T22:56:17.041Z,101425.22
2018-08-17T22:58:22.042Z,101443.16
2018-08-17T23:00:29.251Z,101436.37
2018-08-17T23:02:34.383Z,101433.91
2018-08-17T23:04:39.583Z,101437.47
2018-08-17T23:06:44.826Z,101437.52
2018-08-17T23:08:50.552Z,101443.09
2018-08-17T23:10:55.620Z,101438.83
2018-08-17T23:13:00.583Z,101447.32
2018-08-17T23:15:07.505Z,101449.30
2018-08-17T23:17:12.670Z,101450.81
2018-08-17T23:19:17.617Z,101454.94
2018-08-17T23:21:22.577Z,101455.52
2018-08-17T23:23:27.588Z,101451.68
2018-08-17T23:25:32.857Z,101448.83
2018-08-17T23:27:37.894Z,101447.29
2018-08-17T23:29:43.358Z,101447.36
2018-08-17T23:31:48.285Z,101452.02
2018-08-17T23:33:53.652Z,101446.95
2018-08-17T23:35:58.800Z,101447.94
2018-08-17T23:38:03.838Z,101445.49
2018-08-17T23:40:09.809Z,101452.17
2018-08-17T23:42:14.950Z,101450.92
2018-08-17T23:44:20.070Z,101450.42
2018-08-17T23:46:25.194Z,101451.09
2018-08-17T23:48:30.349Z,101456.11
2018-08-17T23:50:35.661Z,101439.18
2018-08-17T23:52:40.694Z,101441.88
2018-08-17T23:54:45.950Z,101443.95
2018-08-17T23:56:51.078Z,101446.53
2018-08-17T23:58:56.319Z,101450.50
